sensor_id;sensor_type;location;lat;lon;timestamp;P1;durP1;ratioP1;P2;durP2;ratioP2
51614;SDS011;37695;52.960;6.188;2023-03-31T00:02:01;14.57;;;3.88;;
51614;SDS011;37695;52.960;6.188;2023-03-31T00:04:31;20.45;;;4.47;;
51614;SDS011;37695;52.960;6.188;2023-03-31T00:06:57;19.30;;;4.45;;
51614;SDS011;37695;52.960;6.188;2023-03-31T00:09:23;14.43;;;3.97;;
51614;SDS011;37695;52.960;6.188;2023-03-31T00:11:48;24.20;;;4.15;;
51614;SDS011;37695;52.960;6.188;2023-03-31T00:14:16;18.35;;;3.97;;
51614;SDS011;37695;52.960;6.188;2023-03-31T00:16:43;21.85;;;5.60;;
51614;SDS011;37695;52.960;6.188;2023-03-31T00:19:09;18.63;;;4.50;;
51614;SDS011;37695;52.960;6.188;2023-03-31T00:21:42;20.25;;;3.95;;
51614;SDS011;37695;52.960;6.188;2023-03-31T00:24:09;15.65;;;4.47;;
51614;SDS011;37695;52.960;6.188;2023-03-31T00:26:35;16.98;;;4.95;;
51614;SDS011;37695;52.960;6.188;2023-03-31T00:29:02;17.75;;;3.90;;
51614;SDS011;37695;52.960;6.188;2023-03-31T00:31:29;17.17;;;4.07;;
51614;SDS011;37695;52.960;6.188;2023-03-31T00:33:55;14.68;;;3.80;;
51614;SDS011;37695;52.960;6.188;2023-03-31T00:36:21;16.95;;;3.65;;
51614;SDS011;37695;52.960;6.188;2023-03-31T00:38:55;12.65;;;3.53;;
51614;SDS011;37695;52.960;6.188;2023-03-31T00:41:26;16.17;;;3.55;;
51614;SDS011;37695;52.960;6.188;2023-03-31T00:44:07;14.00;;;3.28;;
51614;SDS011;37695;52.960;6.188;2023-03-31T00:46:41;14.95;;;3.70;;
51614;SDS011;37695;52.960;6.188;2023-03-31T00:49:33;16.95;;;3.20;;
51614;SDS011;37695;52.960;6.188;2023-03-31T00:52:29;17.20;;;3.78;;
51614;SDS011;37695;52.960;6.188;2023-03-31T00:55:04;20.98;;;4.07;;
51614;SDS011;37695;52.960;6.188;2023-03-31T00:57:34;18.02;;;4.40;;
51614;SDS011;37695;52.960;6.188;2023-03-31T01:00:04;17.20;;;3.45;;
51614;SDS011;37695;52.960;6.188;2023-03-31T01:02:48;19.00;;;3.60;;
51614;SDS011;37695;52.960;6.188;2023-03-31T01:05:27;15.95;;;4.20;;
51614;SDS011;37695;52.960;6.188;2023-03-31T01:07:55;15.88;;;3.90;;
51614;SDS011;37695;52.960;6.188;2023-03-31T01:10:23;14.98;;;3.72;;
51614;SDS011;37695;52.960;6.188;2023-03-31T01:12:50;13.35;;;3.03;;
51614;SDS011;37695;52.960;6.188;2023-03-31T01:15:18;13.90;;;3.97;;
51614;SDS011;37695;52.960;6.188;2023-03-31T01:17:44;18.35;;;3.88;;
51614;SDS011;37695;52.960;6.188;2023-03-31T01:20:20;16.63;;;3.45;;
51614;SDS011;37695;52.960;6.188;2023-03-31T01:23:07;19.38;;;3.30;;
51614;SDS011;37695;52.960;6.188;2023-03-31T01:25:52;13.20;;;2.90;;
51614;SDS011;37695;52.960;6.188;2023-03-31T01:31:38;15.75;;;3.30;;
51614;SDS011;37695;52.960;6.188;2023-03-31T01:45:40;13.43;;;3.15;;
51614;SDS011;37695;52.960;6.188;2023-03-31T01:48:20;12.85;;;3.60;;
51614;SDS011;37695;52.960;6.188;2023-03-31T01:51:06;20.63;;;3.35;;
51614;SDS011;37695;52.960;6.188;2023-03-31T01:53:58;13.45;;;3.22;;
51614;SDS011;37695;52.960;6.188;2023-03-31T01:56:38;14.88;;;3.05;;
51614;SDS011;37695;52.960;6.188;2023-03-31T02:01:42;11.82;;;2.90;;
51614;SDS011;37695;52.960;6.188;2023-03-31T02:04:21;11.98;;;3.10;;
51614;SDS011;37695;52.960;6.188;2023-03-31T02:06:54;11.90;;;2.65;;
51614;SDS011;37695;52.960;6.188;2023-03-31T02:09:24;13.10;;;3.00;;
51614;SDS011;37695;52.960;6.188;2023-03-31T02:11:54;14.55;;;3.35;;
51614;SDS011;37695;52.960;6.188;2023-03-31T02:14:22;12.85;;;3.05;;
51614;SDS011;37695;52.960;6.188;2023-03-31T02:16:53;11.77;;;3.53;;
51614;SDS011;37695;52.960;6.188;2023-03-31T02:19:22;16.33;;;2.78;;
51614;SDS011;37695;52.960;6.188;2023-03-31T02:21:51;12.60;;;2.80;;
51614;SDS011;37695;52.960;6.188;2023-03-31T02:24:19;14.35;;;3.03;;
51614;SDS011;37695;52.960;6.188;2023-03-31T02:29:17;15.52;;;3.50;;
51614;SDS011;37695;52.960;6.188;2023-03-31T02:31:47;16.33;;;2.75;;
51614;SDS011;37695;52.960;6.188;2023-03-31T02:34:20;8.10;;;2.42;;
51614;SDS011;37695;52.960;6.188;2023-03-31T02:36:47;12.52;;;3.67;;
51614;SDS011;37695;52.960;6.188;2023-03-31T02:39:17;14.80;;;3.22;;
51614;SDS011;37695;52.960;6.188;2023-03-31T02:41:48;11.18;;;2.75;;
51614;SDS011;37695;52.960;6.188;2023-03-31T02:44:13;12.45;;;2.80;;
51614;SDS011;37695;52.960;6.188;2023-03-31T02:46:40;13.25;;;3.47;;
51614;SDS011;37695;52.960;6.188;2023-03-31T02:49:07;12.40;;;3.00;;
51614;SDS011;37695;52.960;6.188;2023-03-31T02:51:56;9.00;;;2.88;;
51614;SDS011;37695;52.960;6.188;2023-03-31T03:00:17;13.15;;;3.63;;
51614;SDS011;37695;52.960;6.188;2023-03-31T03:11:36;11.02;;;2.55;;
51614;SDS011;37695;52.960;6.188;2023-03-31T03:17:05;10.65;;;2.70;;
51614;SDS011;37695;52.960;6.188;2023-03-31T03:19:34;9.77;;;2.88;;
51614;SDS011;37695;52.960;6.188;2023-03-31T03:22:00;9.02;;;2.28;;
51614;SDS011;37695;52.960;6.188;2023-03-31T03:24:25;9.63;;;2.55;;
51614;SDS011;37695;52.960;6.188;2023-03-31T03:26:53;10.98;;;2.67;;
51614;SDS011;37695;52.960;6.188;2023-03-31T03:29:20;7.18;;;2.47;;
51614;SDS011;37695;52.960;6.188;2023-03-31T03:31:46;7.72;;;2.33;;
51614;SDS011;37695;52.960;6.188;2023-03-31T03:34:11;7.60;;;2.33;;
51614;SDS011;37695;52.960;6.188;2023-03-31T03:36:37;7.75;;;2.60;;
51614;SDS011;37695;52.960;6.188;2023-03-31T03:39:03;11.63;;;2.92;;
51614;SDS011;37695;52.960;6.188;2023-03-31T03:41:31;10.60;;;3.13;;
51614;SDS011;37695;52.960;6.188;2023-03-31T03:43:58;10.93;;;3.15;;
51614;SDS011;37695;52.960;6.188;2023-03-31T03:46:24;8.52;;;2.42;;
51614;SDS011;37695;52.960;6.188;2023-03-31T03:48:50;9.18;;;2.70;;
51614;SDS011;37695;52.960;6.188;2023-03-31T03:51:15;6.80;;;2.75;;
51614;SDS011;37695;52.960;6.188;2023-03-31T03:53:41;12.43;;;3.05;;
51614;SDS011;37695;52.960;6.188;2023-03-31T03:56:06;5.68;;;2.45;;
51614;SDS011;37695;52.960;6.188;2023-03-31T03:58:32;6.50;;;2.70;;
51614;SDS011;37695;52.960;6.188;2023-03-31T04:00:57;7.93;;;2.65;;
51614;SDS011;37695;52.960;6.188;2023-03-31T04:03:23;14.98;;;3.47;;
51614;SDS011;37695;52.960;6.188;2023-03-31T04:05:48;8.05;;;2.90;;
51614;SDS011;37695;52.960;6.188;2023-03-31T04:08:14;5.93;;;2.90;;
51614;SDS011;37695;52.960;6.188;2023-03-31T04:10:44;7.05;;;2.90;;
51614;SDS011;37695;52.960;6.188;2023-03-31T04:13:11;7.85;;;2.90;;
51614;SDS011;37695;52.960;6.188;2023-03-31T04:15:36;10.57;;;3.88;;
51614;SDS011;37695;52.960;6.188;2023-03-31T04:18:02;8.40;;;2.78;;
51614;SDS011;37695;52.960;6.188;2023-03-31T04:20:28;9.52;;;3.40;;
51614;SDS011;37695;52.960;6.188;2023-03-31T04:22:54;9.95;;;3.05;;
51614;SDS011;37695;52.960;6.188;2023-03-31T04:25:20;9.45;;;3.67;;
51614;SDS011;37695;52.960;6.188;2023-03-31T04:27:47;6.78;;;3.15;;
51614;SDS011;37695;52.960;6.188;2023-03-31T04:30:23;8.65;;;3.20;;
51614;SDS011;37695;52.960;6.188;2023-03-31T04:32:55;9.10;;;3.22;;
51614;SDS011;37695;52.960;6.188;2023-03-31T04:35:23;8.88;;;3.30;;
51614;SDS011;37695;52.960;6.188;2023-03-31T04:37:50;7.90;;;3.58;;
51614;SDS011;37695;52.960;6.188;2023-03-31T04:40:23;9.70;;;3.75;;
51614;SDS011;37695;52.960;6.188;2023-03-31T04:42:49;9.77;;;3.58;;
51614;SDS011;37695;52.960;6.188;2023-03-31T04:45:15;9.93;;;3.35;;
51614;SDS011;37695;52.960;6.188;2023-03-31T04:47:41;7.88;;;3.10;;
51614;SDS011;37695;52.960;6.188;2023-03-31T04:50:07;8.10;;;3.78;;
51614;SDS011;37695;52.960;6.188;2023-03-31T04:52:35;8.30;;;3.60;;
51614;SDS011;37695;52.960;6.188;2023-03-31T04:55:01;9.50;;;3.60;;
51614;SDS011;37695;52.960;6.188;2023-03-31T04:57:26;7.88;;;3.30;;
51614;SDS011;37695;52.960;6.188;2023-03-31T04:59:52;8.40;;;3.78;;
51614;SDS011;37695;52.960;6.188;2023-03-31T05:02:17;8.10;;;3.40;;
51614;SDS011;37695;52.960;6.188;2023-03-31T05:04:48;6.85;;;3.42;;
51614;SDS011;37695;52.960;6.188;2023-03-31T05:07:14;6.05;;;3.35;;
51614;SDS011;37695;52.960;6.188;2023-03-31T05:09:41;7.50;;;2.92;;
51614;SDS011;37695;52.960;6.188;2023-03-31T05:12:06;5.78;;;3.30;;
51614;SDS011;37695;52.960;6.188;2023-03-31T05:14:32;7.15;;;2.97;;
51614;SDS011;37695;52.960;6.188;2023-03-31T05:16:57;8.45;;;3.55;;
51614;SDS011;37695;52.960;6.188;2023-03-31T05:19:23;7.97;;;3.15;;
51614;SDS011;37695;52.960;6.188;2023-03-31T05:21:49;7.97;;;3.13;;
51614;SDS011;37695;52.960;6.188;2023-03-31T05:24:14;9.45;;;3.40;;
51614;SDS011;37695;52.960;6.188;2023-03-31T05:26:40;6.97;;;2.85;;
51614;SDS011;37695;52.960;6.188;2023-03-31T05:29:08;7.47;;;3.17;;
51614;SDS011;37695;52.960;6.188;2023-03-31T05:31:33;9.40;;;2.95;;
51614;SDS011;37695;52.960;6.188;2023-03-31T05:33:59;6.53;;;3.03;;
51614;SDS011;37695;52.960;6.188;2023-03-31T05:36:24;9.35;;;2.97;;
51614;SDS011;37695;52.960;6.188;2023-03-31T05:38:51;6.55;;;2.67;;
51614;SDS011;37695;52.960;6.188;2023-03-31T05:41:16;7.20;;;2.97;;
51614;SDS011;37695;52.960;6.188;2023-03-31T05:43:42;6.88;;;2.90;;
51614;SDS011;37695;52.960;6.188;2023-03-31T05:46:07;9.90;;;2.75;;
51614;SDS011;37695;52.960;6.188;2023-03-31T05:48:33;6.20;;;2.53;;
51614;SDS011;37695;52.960;6.188;2023-03-31T05:51:01;6.13;;;2.55;;
51614;SDS011;37695;52.960;6.188;2023-03-31T05:53:26;7.95;;;2.65;;
51614;SDS011;37695;52.960;6.188;2023-03-31T05:55:56;6.72;;;2.55;;
51614;SDS011;37695;52.960;6.188;2023-03-31T05:58:23;10.35;;;2.70;;
51614;SDS011;37695;52.960;6.188;2023-03-31T06:00:49;7.35;;;2.58;;
51614;SDS011;37695;52.960;6.188;2023-03-31T06:03:17;6.25;;;2.58;;
51614;SDS011;37695;52.960;6.188;2023-03-31T06:05:49;7.20;;;2.50;;
51614;SDS011;37695;52.960;6.188;2023-03-31T06:10:43;6.07;;;2.53;;
51614;SDS011;37695;52.960;6.188;2023-03-31T06:13:09;9.27;;;2.47;;
51614;SDS011;37695;52.960;6.188;2023-03-31T06:15:34;7.47;;;2.88;;
51614;SDS011;37695;52.960;6.188;2023-03-31T06:18:00;8.30;;;2.40;;
51614;SDS011;37695;52.960;6.188;2023-03-31T06:20:25;7.40;;;2.70;;
51614;SDS011;37695;52.960;6.188;2023-03-31T06:22:51;5.78;;;2.50;;
51614;SDS011;37695;52.960;6.188;2023-03-31T06:25:16;8.32;;;2.55;;
51614;SDS011;37695;52.960;6.188;2023-03-31T06:27:42;5.55;;;2.42;;
51614;SDS011;37695;52.960;6.188;2023-03-31T06:30:07;5.95;;;2.10;;
51614;SDS011;37695;52.960;6.188;2023-03-31T06:32:33;5.45;;;2.22;;
51614;SDS011;37695;52.960;6.188;2023-03-31T06:34:59;4.70;;;1.95;;
51614;SDS011;37695;52.960;6.188;2023-03-31T06:37:25;4.63;;;2.03;;
51614;SDS011;37695;52.960;6.188;2023-03-31T06:39:50;7.88;;;2.58;;
51614;SDS011;37695;52.960;6.188;2023-03-31T06:42:16;5.18;;;1.98;;
51614;SDS011;37695;52.960;6.188;2023-03-31T06:44:41;5.47;;;2.35;;
51614;SDS011;37695;52.960;6.188;2023-03-31T06:47:07;6.70;;;2.08;;
51614;SDS011;37695;52.960;6.188;2023-03-31T06:49:32;6.55;;;2.63;;
51614;SDS011;37695;52.960;6.188;2023-03-31T06:51:58;5.18;;;1.95;;
51614;SDS011;37695;52.960;6.188;2023-03-31T06:54:23;8.60;;;2.45;;
51614;SDS011;37695;52.960;6.188;2023-03-31T06:56:49;7.38;;;2.40;;
51614;SDS011;37695;52.960;6.188;2023-03-31T06:59:14;5.55;;;1.90;;
51614;SDS011;37695;52.960;6.188;2023-03-31T07:01:40;7.57;;;2.30;;
51614;SDS011;37695;52.960;6.188;2023-03-31T07:04:06;5.25;;;2.08;;
51614;SDS011;37695;52.960;6.188;2023-03-31T07:06:32;5.80;;;2.33;;
51614;SDS011;37695;52.960;6.188;2023-03-31T07:08:58;4.28;;;2.17;;
51614;SDS011;37695;52.960;6.188;2023-03-31T07:11:24;4.22;;;2.00;;
51614;SDS011;37695;52.960;6.188;2023-03-31T07:13:49;6.63;;;2.55;;
51614;SDS011;37695;52.960;6.188;2023-03-31T07:16:15;4.95;;;2.10;;
51614;SDS011;37695;52.960;6.188;2023-03-31T07:18:40;5.63;;;2.13;;
51614;SDS011;37695;52.960;6.188;2023-03-31T07:21:06;7.72;;;2.00;;
51614;SDS011;37695;52.960;6.188;2023-03-31T07:23:33;4.68;;;1.90;;
51614;SDS011;37695;52.960;6.188;2023-03-31T07:25:59;4.68;;;2.05;;
51614;SDS011;37695;52.960;6.188;2023-03-31T07:28:27;6.30;;;2.00;;
51614;SDS011;37695;52.960;6.188;2023-03-31T07:30:53;5.47;;;2.35;;
51614;SDS011;37695;52.960;6.188;2023-03-31T07:33:19;5.43;;;2.10;;
51614;SDS011;37695;52.960;6.188;2023-03-31T07:35:44;4.03;;;1.80;;
51614;SDS011;37695;52.960;6.188;2023-03-31T07:38:10;5.32;;;2.20;;
51614;SDS011;37695;52.960;6.188;2023-03-31T07:40:36;5.88;;;2.05;;
51614;SDS011;37695;52.960;6.188;2023-03-31T07:43:03;7.35;;;2.45;;
51614;SDS011;37695;52.960;6.188;2023-03-31T07:45:29;2.58;;;1.92;;
51614;SDS011;37695;52.960;6.188;2023-03-31T07:47:55;5.00;;;2.13;;
51614;SDS011;37695;52.960;6.188;2023-03-31T07:50:21;4.65;;;2.08;;
51614;SDS011;37695;52.960;6.188;2023-03-31T07:52:47;5.30;;;2.30;;
51614;SDS011;37695;52.960;6.188;2023-03-31T07:55:14;7.28;;;2.42;;
51614;SDS011;37695;52.960;6.188;2023-03-31T07:57:40;6.30;;;2.00;;
51614;SDS011;37695;52.960;6.188;2023-03-31T08:00:06;5.85;;;2.10;;
51614;SDS011;37695;52.960;6.188;2023-03-31T08:02:34;5.95;;;2.00;;
51614;SDS011;37695;52.960;6.188;2023-03-31T08:05:00;5.07;;;2.30;;
51614;SDS011;37695;52.960;6.188;2023-03-31T08:07:26;5.90;;;2.10;;
51614;SDS011;37695;52.960;6.188;2023-03-31T08:09:55;7.10;;;2.35;;
51614;SDS011;37695;52.960;6.188;2023-03-31T08:12:21;6.53;;;2.30;;
51614;SDS011;37695;52.960;6.188;2023-03-31T08:14:46;5.75;;;2.08;;
51614;SDS011;37695;52.960;6.188;2023-03-31T08:17:12;6.47;;;2.47;;
51614;SDS011;37695;52.960;6.188;2023-03-31T08:19:37;6.25;;;2.30;;
51614;SDS011;37695;52.960;6.188;2023-03-31T08:22:03;5.78;;;2.17;;
51614;SDS011;37695;52.960;6.188;2023-03-31T08:24:28;5.97;;;2.30;;
51614;SDS011;37695;52.960;6.188;2023-03-31T08:26:54;9.43;;;2.50;;
51614;SDS011;37695;52.960;6.188;2023-03-31T08:29:19;5.22;;;2.20;;
51614;SDS011;37695;52.960;6.188;2023-03-31T08:31:45;7.57;;;2.25;;
51614;SDS011;37695;52.960;6.188;2023-03-31T08:34:10;6.40;;;1.95;;
51614;SDS011;37695;52.960;6.188;2023-03-31T08:36:36;4.93;;;1.90;;
51614;SDS011;37695;52.960;6.188;2023-03-31T08:39:02;5.43;;;2.03;;
51614;SDS011;37695;52.960;6.188;2023-03-31T08:41:37;5.18;;;2.20;;
51614;SDS011;37695;52.960;6.188;2023-03-31T08:44:06;5.80;;;2.22;;
51614;SDS011;37695;52.960;6.188;2023-03-31T08:46:36;6.15;;;2.08;;
51614;SDS011;37695;52.960;6.188;2023-03-31T08:49:03;7.47;;;2.15;;
51614;SDS011;37695;52.960;6.188;2023-03-31T08:51:35;5.75;;;2.17;;
51614;SDS011;37695;52.960;6.188;2023-03-31T08:54:05;5.07;;;2.03;;
51614;SDS011;37695;52.960;6.188;2023-03-31T08:56:37;5.10;;;2.05;;
51614;SDS011;37695;52.960;6.188;2023-03-31T08:59:14;4.93;;;2.40;;
51614;SDS011;37695;52.960;6.188;2023-03-31T09:01:59;6.55;;;2.10;;
51614;SDS011;37695;52.960;6.188;2023-03-31T09:04:42;7.50;;;2.15;;
51614;SDS011;37695;52.960;6.188;2023-03-31T09:07:15;3.75;;;1.90;;
51614;SDS011;37695;52.960;6.188;2023-03-31T09:09:55;5.80;;;2.03;;
51614;SDS011;37695;52.960;6.188;2023-03-31T09:18:17;4.95;;;2.17;;
51614;SDS011;37695;52.960;6.188;2023-03-31T09:20:59;5.57;;;1.73;;
51614;SDS011;37695;52.960;6.188;2023-03-31T09:26:49;4.80;;;1.90;;
51614;SDS011;37695;52.960;6.188;2023-03-31T09:29:27;5.38;;;1.92;;
51614;SDS011;37695;52.960;6.188;2023-03-31T09:32:05;7.40;;;2.22;;
51614;SDS011;37695;52.960;6.188;2023-03-31T09:34:42;5.00;;;1.73;;
51614;SDS011;37695;52.960;6.188;2023-03-31T09:37:10;6.15;;;1.80;;
51614;SDS011;37695;52.960;6.188;2023-03-31T09:39:36;3.97;;;1.95;;
51614;SDS011;37695;52.960;6.188;2023-03-31T09:42:03;4.47;;;1.83;;
51614;SDS011;37695;52.960;6.188;2023-03-31T09:44:39;5.57;;;1.85;;
51614;SDS011;37695;52.960;6.188;2023-03-31T09:47:28;4.03;;;1.70;;
51614;SDS011;37695;52.960;6.188;2023-03-31T09:49:58;3.67;;;1.60;;
51614;SDS011;37695;52.960;6.188;2023-03-31T09:52:30;5.47;;;1.90;;
51614;SDS011;37695;52.960;6.188;2023-03-31T09:54:59;2.85;;;1.50;;
51614;SDS011;37695;52.960;6.188;2023-03-31T09:57:31;4.90;;;2.20;;
51614;SDS011;37695;52.960;6.188;2023-03-31T10:00:03;4.47;;;1.60;;
51614;SDS011;37695;52.960;6.188;2023-03-31T10:02:50;4.00;;;1.90;;
51614;SDS011;37695;52.960;6.188;2023-03-31T10:05:18;4.70;;;1.60;;
51614;SDS011;37695;52.960;6.188;2023-03-31T10:07:49;3.30;;;1.50;;
51614;SDS011;37695;52.960;6.188;2023-03-31T10:10:37;5.00;;;2.20;;
51614;SDS011;37695;52.960;6.188;2023-03-31T10:13:01;6.55;;;1.70;;
51614;SDS011;37695;52.960;6.188;2023-03-31T10:15:35;4.43;;;1.70;;
51614;SDS011;37695;52.960;6.188;2023-03-31T10:18:02;5.10;;;1.77;;
51614;SDS011;37695;52.960;6.188;2023-03-31T10:22:58;5.10;;;1.77;;
51614;SDS011;37695;52.960;6.188;2023-03-31T10:25:40;4.70;;;1.92;;
51614;SDS011;37695;52.960;6.188;2023-03-31T10:28:09;5.57;;;2.22;;
51614;SDS011;37695;52.960;6.188;2023-03-31T10:30:37;6.78;;;2.00;;
51614;SDS011;37695;52.960;6.188;2023-03-31T10:33:10;5.07;;;1.90;;
51614;SDS011;37695;52.960;6.188;2023-03-31T10:35:40;6.70;;;2.10;;
51614;SDS011;37695;52.960;6.188;2023-03-31T10:38:06;3.95;;;1.90;;
51614;SDS011;37695;52.960;6.188;2023-03-31T10:40:38;4.38;;;2.10;;
51614;SDS011;37695;52.960;6.188;2023-03-31T10:43:15;8.50;;;2.22;;
51614;SDS011;37695;52.960;6.188;2023-03-31T10:45:48;5.22;;;2.00;;
51614;SDS011;37695;52.960;6.188;2023-03-31T10:48:56;5.78;;;1.90;;
51614;SDS011;37695;52.960;6.188;2023-03-31T10:51:14;4.65;;;1.92;;
51614;SDS011;37695;52.960;6.188;2023-03-31T10:53:52;6.28;;;2.22;;
51614;SDS011;37695;52.960;6.188;2023-03-31T10:59:00;6.18;;;2.20;;
51614;SDS011;37695;52.960;6.188;2023-03-31T11:01:42;6.38;;;2.17;;
51614;SDS011;37695;52.960;6.188;2023-03-31T11:04:32;6.50;;;2.33;;
51614;SDS011;37695;52.960;6.188;2023-03-31T11:10:08;4.82;;;2.03;;
51614;SDS011;37695;52.960;6.188;2023-03-31T11:12:48;8.07;;;2.40;;
51614;SDS011;37695;52.960;6.188;2023-03-31T11:32:48;5.55;;;1.75;;
51614;SDS011;37695;52.960;6.188;2023-03-31T11:35:32;6.07;;;2.10;;
51614;SDS011;37695;52.960;6.188;2023-03-31T11:38:40;5.03;;;2.33;;
51614;SDS011;37695;52.960;6.188;2023-03-31T11:41:30;6.13;;;2.17;;
51614;SDS011;37695;52.960;6.188;2023-03-31T11:44:03;5.75;;;2.30;;
51614;SDS011;37695;52.960;6.188;2023-03-31T11:46:32;5.15;;;2.03;;
51614;SDS011;37695;52.960;6.188;2023-03-31T11:49:27;5.68;;;2.20;;
51614;SDS011;37695;52.960;6.188;2023-03-31T11:52:14;5.60;;;2.00;;
51614;SDS011;37695;52.960;6.188;2023-03-31T11:54:53;4.35;;;2.00;;
51614;SDS011;37695;52.960;6.188;2023-03-31T11:57:47;6.85;;;2.22;;
51614;SDS011;37695;52.960;6.188;2023-03-31T12:00:24;8.65;;;2.53;;
51614;SDS011;37695;52.960;6.188;2023-03-31T12:05:36;6.82;;;2.80;;
51614;SDS011;37695;52.960;6.188;2023-03-31T12:08:18;8.00;;;2.67;;
51614;SDS011;37695;52.960;6.188;2023-03-31T12:10:53;6.20;;;2.40;;
51614;SDS011;37695;52.960;6.188;2023-03-31T12:16:23;7.45;;;2.08;;
51614;SDS011;37695;52.960;6.188;2023-03-31T12:19:20;10.60;;;2.85;;
51614;SDS011;37695;52.960;6.188;2023-03-31T12:21:54;5.82;;;2.67;;
51614;SDS011;37695;52.960;6.188;2023-03-31T12:24:24;5.25;;;2.30;;
51614;SDS011;37695;52.960;6.188;2023-03-31T12:27:06;6.43;;;2.55;;
51614;SDS011;37695;52.960;6.188;2023-03-31T12:29:39;7.25;;;2.47;;
51614;SDS011;37695;52.960;6.188;2023-03-31T12:32:16;6.00;;;2.42;;
51614;SDS011;37695;52.960;6.188;2023-03-31T12:34:45;5.78;;;2.33;;
51614;SDS011;37695;52.960;6.188;2023-03-31T12:37:19;7.50;;;3.03;;
51614;SDS011;37695;52.960;6.188;2023-03-31T12:56:17;5.25;;;2.40;;
51614;SDS011;37695;52.960;6.188;2023-03-31T12:58:43;8.52;;;2.90;;
51614;SDS011;37695;52.960;6.188;2023-03-31T13:01:14;8.80;;;2.88;;
51614;SDS011;37695;52.960;6.188;2023-03-31T13:03:43;8.38;;;2.90;;
51614;SDS011;37695;52.960;6.188;2023-03-31T13:06:49;7.90;;;2.65;;
51614;SDS011;37695;52.960;6.188;2023-03-31T13:14:01;6.78;;;2.35;;
51614;SDS011;37695;52.960;6.188;2023-03-31T13:16:30;5.57;;;1.88;;
51614;SDS011;37695;52.960;6.188;2023-03-31T13:18:57;4.63;;;1.40;;
51614;SDS011;37695;52.960;6.188;2023-03-31T13:21:24;3.35;;;1.17;;
51614;SDS011;37695;52.960;6.188;2023-03-31T13:23:50;3.63;;;1.20;;
51614;SDS011;37695;52.960;6.188;2023-03-31T13:34:33;4.13;;;1.73;;
51614;SDS011;37695;52.960;6.188;2023-03-31T13:37:09;4.90;;;1.70;;
51614;SDS011;37695;52.960;6.188;2023-03-31T13:48:27;5.25;;;1.83;;
51614;SDS011;37695;52.960;6.188;2023-03-31T13:59:11;5.28;;;1.70;;
51614;SDS011;37695;52.960;6.188;2023-03-31T14:07:11;4.45;;;1.60;;
51614;SDS011;37695;52.960;6.188;2023-03-31T14:09:42;4.75;;;1.77;;
51614;SDS011;37695;52.960;6.188;2023-03-31T14:12:30;6.15;;;1.95;;
51614;SDS011;37695;52.960;6.188;2023-03-31T14:14:56;6.25;;;1.77;;
51614;SDS011;37695;52.960;6.188;2023-03-31T14:17:55;6.53;;;1.85;;
51614;SDS011;37695;52.960;6.188;2023-03-31T14:26:06;5.53;;;1.75;;
51614;SDS011;37695;52.960;6.188;2023-03-31T14:29:11;2.88;;;1.15;;
51614;SDS011;37695;52.960;6.188;2023-03-31T14:31:44;4.90;;;1.60;;
51614;SDS011;37695;52.960;6.188;2023-03-31T14:34:48;3.72;;;1.52;;
51614;SDS011;37695;52.960;6.188;2023-03-31T14:37:25;4.10;;;1.65;;
51614;SDS011;37695;52.960;6.188;2023-03-31T14:39:53;6.43;;;1.98;;
51614;SDS011;37695;52.960;6.188;2023-03-31T14:42:34;4.03;;;1.40;;
51614;SDS011;37695;52.960;6.188;2023-03-31T14:45:04;5.10;;;1.75;;
51614;SDS011;37695;52.960;6.188;2023-03-31T14:47:39;7.15;;;2.38;;
51614;SDS011;37695;52.960;6.188;2023-03-31T14:50:10;4.47;;;1.52;;
51614;SDS011;37695;52.960;6.188;2023-03-31T14:52:39;5.60;;;1.50;;
51614;SDS011;37695;52.960;6.188;2023-03-31T14:55:15;4.68;;;1.48;;
51614;SDS011;37695;52.960;6.188;2023-03-31T14:57:42;5.32;;;1.77;;
51614;SDS011;37695;52.960;6.188;2023-03-31T15:00:11;4.57;;;1.67;;
51614;SDS011;37695;52.960;6.188;2023-03-31T15:02:40;4.38;;;1.70;;
51614;SDS011;37695;52.960;6.188;2023-03-31T15:05:08;5.53;;;1.58;;
51614;SDS011;37695;52.960;6.188;2023-03-31T15:07:45;2.95;;;1.42;;
51614;SDS011;37695;52.960;6.188;2023-03-31T15:10:12;4.68;;;1.90;;
51614;SDS011;37695;52.960;6.188;2023-03-31T15:12:44;4.97;;;1.42;;
51614;SDS011;37695;52.960;6.188;2023-03-31T15:15:11;5.32;;;1.60;;
51614;SDS011;37695;52.960;6.188;2023-03-31T15:17:39;5.72;;;1.75;;
51614;SDS011;37695;52.960;6.188;2023-03-31T15:22:55;5.85;;;1.83;;
51614;SDS011;37695;52.960;6.188;2023-03-31T15:25:25;4.32;;;1.52;;
51614;SDS011;37695;52.960;6.188;2023-03-31T15:27:58;5.28;;;1.60;;
51614;SDS011;37695;52.960;6.188;2023-03-31T15:30:27;7.38;;;1.98;;
51614;SDS011;37695;52.960;6.188;2023-03-31T15:32:54;4.97;;;1.77;;
51614;SDS011;37695;52.960;6.188;2023-03-31T15:37:50;7.97;;;2.22;;
51614;SDS011;37695;52.960;6.188;2023-03-31T15:42:54;4.20;;;1.85;;
51614;SDS011;37695;52.960;6.188;2023-03-31T15:48:02;8.75;;;2.03;;
51614;SDS011;37695;52.960;6.188;2023-03-31T15:50:28;6.00;;;1.85;;
51614;SDS011;37695;52.960;6.188;2023-03-31T15:52:56;5.15;;;1.70;;
51614;SDS011;37695;52.960;6.188;2023-03-31T15:57:48;3.97;;;1.42;;
51614;SDS011;37695;52.960;6.188;2023-03-31T16:02:55;5.10;;;1.83;;
51614;SDS011;37695;52.960;6.188;2023-03-31T16:05:32;4.90;;;1.40;;
51614;SDS011;37695;52.960;6.188;2023-03-31T16:08:08;5.20;;;1.88;;
51614;SDS011;37695;52.960;6.188;2023-03-31T16:10:37;5.03;;;1.33;;
51614;SDS011;37695;52.960;6.188;2023-03-31T16:13:04;6.63;;;1.80;;
51614;SDS011;37695;52.960;6.188;2023-03-31T16:15:39;5.47;;;1.85;;
51614;SDS011;37695;52.960;6.188;2023-03-31T16:18:11;5.18;;;1.92;;
51614;SDS011;37695;52.960;6.188;2023-03-31T16:20:42;5.50;;;1.92;;
51614;SDS011;37695;52.960;6.188;2023-03-31T16:23:15;4.88;;;2.08;;
51614;SDS011;37695;52.960;6.188;2023-03-31T16:25:46;5.38;;;1.92;;
51614;SDS011;37695;52.960;6.188;2023-03-31T16:28:13;4.95;;;1.85;;
51614;SDS011;37695;52.960;6.188;2023-03-31T16:30:41;6.93;;;2.08;;
51614;SDS011;37695;52.960;6.188;2023-03-31T16:35:39;4.65;;;1.77;;
51614;SDS011;37695;52.960;6.188;2023-03-31T16:38:07;7.50;;;2.03;;
51614;SDS011;37695;52.960;6.188;2023-03-31T16:40:37;4.80;;;1.90;;
51614;SDS011;37695;52.960;6.188;2023-03-31T16:43:23;5.97;;;1.80;;
51614;SDS011;37695;52.960;6.188;2023-03-31T16:45:52;5.32;;;1.90;;
51614;SDS011;37695;52.960;6.188;2023-03-31T16:48:19;5.35;;;1.67;;
51614;SDS011;37695;52.960;6.188;2023-03-31T16:50:56;4.50;;;1.60;;
51614;SDS011;37695;52.960;6.188;2023-03-31T16:53:24;4.47;;;1.40;;
51614;SDS011;37695;52.960;6.188;2023-03-31T16:55:51;4.75;;;1.70;;
51614;SDS011;37695;52.960;6.188;2023-03-31T16:58:17;7.28;;;1.73;;
51614;SDS011;37695;52.960;6.188;2023-03-31T17:00:44;3.95;;;1.67;;
51614;SDS011;37695;52.960;6.188;2023-03-31T17:03:10;5.05;;;1.85;;
51614;SDS011;37695;52.960;6.188;2023-03-31T17:05:37;4.07;;;1.75;;
51614;SDS011;37695;52.960;6.188;2023-03-31T17:08:03;4.20;;;1.60;;
51614;SDS011;37695;52.960;6.188;2023-03-31T17:10:29;7.22;;;1.80;;
51614;SDS011;37695;52.960;6.188;2023-03-31T17:12:54;4.78;;;1.60;;
51614;SDS011;37695;52.960;6.188;2023-03-31T17:15:20;4.65;;;1.50;;
51614;SDS011;37695;52.960;6.188;2023-03-31T17:17:46;5.50;;;1.80;;
51614;SDS011;37695;52.960;6.188;2023-03-31T17:20:12;9.90;;;2.10;;
51614;SDS011;37695;52.960;6.188;2023-03-31T17:22:37;4.10;;;1.70;;
51614;SDS011;37695;52.960;6.188;2023-03-31T17:25:03;3.15;;;1.30;;
51614;SDS011;37695;52.960;6.188;2023-03-31T17:27:29;3.80;;;1.50;;
51614;SDS011;37695;52.960;6.188;2023-03-31T17:29:56;4.57;;;1.50;;
51614;SDS011;37695;52.960;6.188;2023-03-31T17:32:21;5.20;;;1.80;;
51614;SDS011;37695;52.960;6.188;2023-03-31T17:34:47;3.83;;;1.52;;
51614;SDS011;37695;52.960;6.188;2023-03-31T17:37:14;3.00;;;1.27;;
51614;SDS011;37695;52.960;6.188;2023-03-31T17:39:41;5.22;;;1.50;;
51614;SDS011;37695;52.960;6.188;2023-03-31T17:42:07;3.28;;;1.20;;